createdAt,value
2018-09-30T00:00:40.927Z,4.60
2018-09-30T00:01:40.904Z,5.00
2018-09-30T00:02:40.894Z,4.00
2018-09-30T00:03:40.885Z,3.70
2018-09-30T00:04:40.904Z,6.10
2018-09-30T00:05:40.862Z,4.90
2018-09-30T00:06:40.854Z,3.10
2018-09-30T00:07:40.846Z,3.80
2018-09-30T00:08:40.829Z,4.80
2018-09-30T00:09:40.823Z,4.50
2018-09-30T00:10:40.840Z,4.90
2018-09-30T00:11:40.793Z,4.20
2018-09-30T00:12:40.813Z,4.50
2018-09-30T00:13:40.769Z,3.90
2018-09-30T00:14:40.759Z,3.10
2018-09-30T00:15:40.772Z,5.20
2018-09-30T00:16:40.736Z,5.60
2018-09-30T00:17:40.727Z,4.30
2018-09-30T00:18:40.733Z,3.50
2018-09-30T00:19:40.752Z,4.20
2018-09-30T00:20:40.733Z,3.70
2018-09-30T00:21:40.686Z,3.30
2018-09-30T00:22:40.677Z,4.50
2018-09-30T00:23:40.658Z,4.50
2018-09-30T00:24:40.654Z,4.60
2018-09-30T00:25:40.670Z,5.20
2018-09-30T00:26:40.659Z,4.70
2018-09-30T00:27:40.619Z,3.70
2018-09-30T00:28:40.612Z,3.50
2018-09-30T00:29:40.593Z,4.40
2018-09-30T00:30:40.584Z,3.90
2018-09-30T00:31:40.595Z,4.10
2018-09-30T00:32:40.559Z,3.60
2018-09-30T00:33:40.556Z,5.70
2018-09-30T00:34:40.543Z,3.70
2018-09-30T00:35:40.526Z,5.90
2018-09-30T00:36:40.544Z,5.00
2018-09-30T00:37:40.515Z,5.30
2018-09-30T00:38:40.493Z,3.40
2018-09-30T00:39:40.495Z,4.70
2018-09-30T00:40:40.475Z,3.10
2018-09-30T00:41:40.502Z,4.90
2018-09-30T00:42:40.455Z,4.20
2018-09-30T00:43:40.443Z,5.90
2018-09-30T00:44:40.430Z,5.00
2018-09-30T00:45:40.422Z,4.60
2018-09-30T00:46:40.437Z,3.60
2018-09-30T00:47:40.429Z,3.70
2018-09-30T00:48:40.383Z,3.50
2018-09-30T00:49:40.376Z,4.60
2018-09-30T00:50:40.371Z,4.60
2018-09-30T00:51:40.352Z,5.70
2018-09-30T00:52:40.371Z,5.00
2018-09-30T00:53:40.338Z,7.30
2018-09-30T00:54:40.319Z,4.50
2018-09-30T00:55:40.309Z,4.10
2018-09-30T00:56:40.299Z,3.00
2018-09-30T00:57:40.349Z,5.50
2018-09-30T00:58:40.278Z,4.70
2018-09-30T00:59:40.271Z,4.50
2018-09-30T01:00:40.256Z,4.40
2018-09-30T01:01:40.244Z,5.20
2018-09-30T01:02:40.276Z,5.80
2018-09-30T01:03:40.256Z,3.70
2018-09-30T01:04:40.212Z,4.50
2018-09-30T01:05:40.199Z,3.60
2018-09-30T01:06:40.201Z,3.80
2018-09-30T01:07:40.176Z,3.80
2018-09-30T01:08:40.191Z,4.80
2018-09-30T01:09:40.167Z,3.80
2018-09-30T01:10:40.166Z,6.00
2018-09-30T01:11:40.144Z,4.70
2018-09-30T01:12:40.121Z,5.30
2018-09-30T01:13:40.135Z,3.70
2018-09-30T01:14:40.097Z,3.90
2018-09-30T01:15:40.087Z,4.00
2018-09-30T01:16:40.077Z,4.30
2018-09-30T01:17:40.068Z,4.40
2018-09-30T01:18:40.091Z,5.70
2018-09-30T01:19:40.044Z,4.30
2018-09-30T01:20:40.097Z,4.20
2018-09-30T01:21:40.022Z,4.60
2018-09-30T01:22:40.013Z,5.00
2018-09-30T01:23:40.046Z,4.20
2018-09-30T01:24:40.015Z,4.30
2018-09-30T01:25:39.979Z,3.10
2018-09-30T01:26:39.969Z,5.90
2018-09-30T01:27:39.958Z,3.70
2018-09-30T01:28:39.944Z,4.20
2018-09-30T01:29:39.959Z,6.10
2018-09-30T01:30:39.935Z,4.60
2018-09-30T01:31:39.916Z,4.80
2018-09-30T01:32:39.901Z,4.40
2018-09-30T01:33:39.902Z,5.30
2018-09-30T01:34:39.909Z,3.80
2018-09-30T01:35:39.891Z,4.40
2018-09-30T01:36:39.866Z,5.10
2018-09-30T01:37:39.861Z,5.00
2018-09-30T01:38:39.842Z,4.40
2018-09-30T01:39:39.856Z,5.20
2018-09-30T01:40:39.860Z,5.00
2018-09-30T01:41:39.808Z,4.80
2018-09-30T01:42:39.805Z,4.50
2018-09-30T01:43:39.782Z,5.40
2018-09-30T01:44:39.816Z,3.60
2018-09-30T01:45:39.761Z,5.00
2018-09-30T01:46:39.758Z,5.40
2018-09-30T01:47:39.737Z,4.00
2018-09-30T01:48:39.738Z,5.20
2018-09-30T01:49:39.715Z,5.00
2018-09-30T01:50:39.747Z,4.60
2018-09-30T01:51:39.727Z,4.00
2018-09-30T01:52:39.685Z,4.10
2018-09-30T01:53:39.670Z,4.60
2018-09-30T01:54:39.658Z,4.20
2018-09-30T01:55:39.685Z,4.40
2018-09-30T01:56:39.652Z,5.20
2018-09-30T01:57:39.637Z,5.70
2018-09-30T01:58:39.627Z,4.70
2018-09-30T01:59:39.607Z,5.40
2018-09-30T02:00:39.626Z,4.40
2018-09-30T02:01:39.584Z,5.40
2018-09-30T02:02:39.599Z,4.80
2018-09-30T02:03:39.562Z,4.60
2018-09-30T02:04:39.548Z,5.70
2018-09-30T02:05:39.576Z,5.50
2018-09-30T02:06:39.536Z,5.90
2018-09-30T02:07:39.517Z,3.10
2018-09-30T02:08:39.505Z,5.80
2018-09-30T02:09:39.501Z,5.20
2018-09-30T02:10:39.520Z,4.50
2018-09-30T02:11:39.473Z,4.00
2018-09-30T02:12:39.468Z,6.30
2018-09-30T02:13:39.447Z,5.20
2018-09-30T02:14:39.440Z,7.60
2018-09-30T02:15:39.452Z,7.70
2018-09-30T02:16:39.447Z,7.10
2018-09-30T02:17:39.406Z,5.60
2018-09-30T02:18:39.398Z,4.20
2018-09-30T02:19:39.396Z,5.60
2018-09-30T02:20:39.378Z,3.60
2018-09-30T02:21:39.383Z,4.70
2018-09-30T02:22:39.363Z,4.30
2018-09-30T02:23:39.339Z,5.30
2018-09-30T02:24:39.336Z,5.00
2018-09-30T02:25:39.324Z,3.60
2018-09-30T02:26:39.404Z,4.60
2018-09-30T02:27:39.300Z,5.70
2018-09-30T02:28:39.294Z,5.70
2018-09-30T02:29:39.273Z,3.80
2018-09-30T02:30:39.302Z,5.20
2018-09-30T02:31:39.301Z,3.80
2018-09-30T02:32:39.255Z,5.30
2018-09-30T02:33:39.232Z,3.40
2018-09-30T02:34:39.224Z,3.80
2018-09-30T02:35:39.223Z,6.10
2018-09-30T02:36:39.260Z,6.00
2018-09-30T02:37:39.218Z,4.50
2018-09-30T02:38:39.187Z,5.10
2018-09-30T02:39:39.165Z,4.70
2018-09-30T02:40:39.157Z,3.30
2018-09-30T02:41:39.144Z,4.90
2018-09-30T02:42:39.170Z,6.10
2018-09-30T02:43:39.124Z,2.90
2018-09-30T02:44:39.140Z,3.70
2018-09-30T02:45:39.099Z,4.50
2018-09-30T02:46:39.099Z,4.00
2018-09-30T02:47:39.116Z,5.40
2018-09-30T02:48:39.066Z,5.70
2018-09-30T02:49:39.065Z,4.40
2018-09-30T02:50:39.077Z,4.40
2018-09-30T02:51:39.033Z,5.00
2018-09-30T02:52:39.051Z,4.80
2018-09-30T02:53:39.034Z,4.60
2018-09-30T02:54:39.006Z,4.20
2018-09-30T02:55:38.993Z,5.10
2018-09-30T02:56:38.982Z,4.70
2018-09-30T02:57:38.977Z,4.90
2018-09-30T02:58:38.987Z,5.70
2018-09-30T02:59:38.955Z,5.00
2018-09-30T03:00:38.944Z,6.40
2018-09-30T03:01:38.941Z,3.60
2018-09-30T03:02:38.927Z,2.80
2018-09-30T03:03:38.925Z,5.00
2018-09-30T03:04:38.891Z,7.30
2018-09-30T03:05:38.889Z,4.90
2018-09-30T03:06:38.867Z,4.10
2018-09-30T03:07:38.856Z,5.00
2018-09-30T03:08:38.894Z,5.10
2018-09-30T03:09:38.833Z,7.40
2018-09-30T03:10:38.823Z,4.10
2018-09-30T03:11:38.829Z,3.10
2018-09-30T03:12:38.808Z,4.10
2018-09-30T03:13:38.820Z,4.60
2018-09-30T03:14:38.800Z,4.20
2018-09-30T03:15:38.769Z,4.50
2018-09-30T03:16:38.761Z,6.20
2018-09-30T03:17:38.764Z,4.50
2018-09-30T03:18:38.732Z,4.90
2018-09-30T03:19:38.765Z,4.00
2018-09-30T03:20:38.720Z,5.80
2018-09-30T03:21:38.713Z,4.60
2018-09-30T03:22:38.691Z,4.20
2018-09-30T03:23:38.687Z,3.80
2018-09-30T03:24:38.707Z,3.60
2018-09-30T03:25:38.660Z,4.00
2018-09-30T03:26:38.651Z,4.20
2018-09-30T03:27:38.634Z,3.60
2018-09-30T03:28:38.622Z,4.50
2018-09-30T03:29:38.637Z,3.60
2018-09-30T03:30:38.606Z,3.80
2018-09-30T03:31:38.590Z,4.20
2018-09-30T03:32:38.654Z,5.00
2018-09-30T03:33:38.567Z,4.00
2018-09-30T03:34:38.594Z,5.30
2018-09-30T03:35:38.551Z,3.70
2018-09-30T03:36:38.534Z,4.00
2018-09-30T03:37:38.524Z,4.50
2018-09-30T03:38:38.522Z,5.70
2018-09-30T03:39:38.583Z,5.30
2018-09-30T03:40:38.512Z,4.00
2018-09-30T03:41:38.480Z,4.60
2018-09-30T03:42:38.477Z,4.00
2018-09-30T03:43:38.455Z,4.30
2018-09-30T03:44:38.450Z,2.90
2018-09-30T03:45:38.467Z,4.30
2018-09-30T03:46:38.425Z,4.70
2018-09-30T03:47:38.415Z,4.70
2018-09-30T03:48:38.405Z,4.10
2018-09-30T03:49:38.393Z,3.90
2018-09-30T03:50:38.428Z,3.90
2018-09-30T03:51:38.370Z,4.00
2018-09-30T03:52:38.356Z,3.70
2018-09-30T03:53:38.347Z,3.60
2018-09-30T03:54:38.335Z,4.80
2018-09-30T03:55:38.340Z,5.00
2018-09-30T03:56:38.397Z,3.30
2018-09-30T03:57:38.313Z,5.10
2018-09-30T03:58:38.311Z,4.10
2018-09-30T03:59:38.282Z,5.10
2018-09-30T04:00:38.280Z,4.70
2018-09-30T04:01:38.322Z,4.50
2018-09-30T04:02:38.248Z,5.50
2018-09-30T04:03:38.251Z,6.50
2018-09-30T04:04:38.223Z,5.90
2018-09-30T04:05:38.213Z,5.20
2018-09-30T04:06:38.258Z,4.40
2018-09-30T04:07:38.189Z,7.00
2018-09-30T04:08:38.191Z,5.70
2018-09-30T04:09:38.317Z,8.10
2018-09-30T04:10:38.175Z,7.70
2018-09-30T04:11:38.169Z,9.30
2018-09-30T04:12:38.157Z,9.70
2018-09-30T04:13:38.128Z,10.00
2018-09-30T04:14:38.115Z,11.70
2018-09-30T04:15:38.105Z,11.10
2018-09-30T04:16:38.096Z,9.00
2018-09-30T04:17:38.126Z,11.10
2018-09-30T04:18:38.074Z,7.90
2018-09-30T04:19:38.059Z,7.50
2018-09-30T04:20:38.048Z,7.80
2018-09-30T04:21:38.039Z,9.40
2018-09-30T04:22:38.061Z,9.60
2018-09-30T04:23:38.018Z,7.80
2018-09-30T04:24:38.003Z,8.80
2018-09-30T04:25:37.994Z,9.10
2018-09-30T04:26:37.981Z,7.60
2018-09-30T04:27:37.997Z,9.10
2018-09-30T04:28:37.960Z,8.40
2018-09-30T04:29:37.951Z,9.50
2018-09-30T04:30:37.937Z,10.40
2018-09-30T04:31:37.927Z,9.70
2018-09-30T04:32:37.976Z,8.70
2018-09-30T04:33:37.903Z,6.90
2018-09-30T04:34:37.894Z,9.20
2018-09-30T04:35:37.899Z,9.80
2018-09-30T04:36:37.872Z,9.10
2018-09-30T04:37:37.905Z,8.00
2018-09-30T04:38:37.860Z,7.60
2018-09-30T04:39:37.836Z,5.90
2018-09-30T04:40:37.828Z,6.80
2018-09-30T04:41:37.816Z,9.20
2018-09-30T04:42:37.804Z,8.40
2018-09-30T04:43:37.828Z,6.60
2018-09-30T04:44:37.784Z,7.20
2018-09-30T04:45:37.773Z,6.20
2018-09-30T04:46:37.761Z,7.40
2018-09-30T04:47:37.753Z,7.80
2018-09-30T04:48:37.779Z,6.00
2018-09-30T04:49:37.726Z,7.80
2018-09-30T04:50:37.719Z,9.10
2018-09-30T04:51:37.703Z,7.20
2018-09-30T04:52:37.692Z,6.60
2018-09-30T04:53:37.719Z,7.00
2018-09-30T04:54:37.672Z,8.70
2018-09-30T04:55:37.664Z,8.30
2018-09-30T04:56:37.653Z,10.80
2018-09-30T04:57:37.643Z,8.40
2018-09-30T04:58:37.665Z,8.50
2018-09-30T04:59:37.619Z,10.20
2018-09-30T05:00:37.610Z,8.50
2018-09-30T05:01:37.592Z,9.40
2018-09-30T05:02:37.589Z,9.00
2018-09-30T05:03:37.593Z,9.20
2018-09-30T05:04:37.585Z,7.80
2018-09-30T05:05:37.588Z,8.90
2018-09-30T05:06:37.552Z,9.10
2018-09-30T05:07:37.530Z,6.90
2018-09-30T05:08:37.522Z,7.00
2018-09-30T05:09:37.538Z,8.70
2018-09-30T05:10:37.499Z,8.50
2018-09-30T05:11:37.487Z,8.00
2018-09-30T05:12:37.478Z,7.80
2018-09-30T05:13:37.466Z,7.00
2018-09-30T05:14:37.478Z,6.80
2018-09-30T05:15:37.445Z,7.60
2018-09-30T05:16:37.429Z,9.30
2018-09-30T05:17:37.422Z,8.80
2018-09-30T05:18:37.411Z,7.60
2018-09-30T05:19:37.440Z,7.00
2018-09-30T05:20:37.428Z,7.20
2018-09-30T05:21:37.377Z,8.00
2018-09-30T05:22:37.369Z,7.90
2018-09-30T05:23:37.353Z,7.00
2018-09-30T05:24:37.346Z,5.70
2018-09-30T05:25:37.368Z,5.60
2018-09-30T05:26:37.319Z,7.60
2018-09-30T05:27:37.316Z,7.00
2018-09-30T05:28:37.304Z,6.80
2018-09-30T05:29:37.286Z,7.30
2018-09-30T05:30:37.319Z,7.40
2018-09-30T05:31:37.285Z,7.20
2018-09-30T05:32:37.254Z,9.60
2018-09-30T05:33:37.243Z,9.20
2018-09-30T05:34:37.234Z,7.90
2018-09-30T05:35:37.224Z,7.20
2018-09-30T05:36:37.241Z,10.00
2018-09-30T05:37:37.202Z,7.70
2018-09-30T05:38:37.191Z,8.80
2018-09-30T05:39:37.182Z,8.20
2018-09-30T05:40:37.164Z,8.30
2018-09-30T05:41:37.201Z,8.20
2018-09-30T05:42:37.146Z,7.60
2018-09-30T05:43:37.137Z,6.60
2018-09-30T05:44:37.124Z,8.00
2018-09-30T05:45:37.111Z,6.90
2018-09-30T05:46:37.136Z,6.90
2018-09-30T05:47:37.091Z,7.00
2018-09-30T05:48:37.078Z,6.70
2018-09-30T05:49:37.069Z,9.10
2018-09-30T05:50:37.065Z,8.80
2018-09-30T05:51:37.044Z,7.70
2018-09-30T05:52:37.061Z,9.20
2018-09-30T05:53:37.028Z,7.20
2018-09-30T05:54:37.011Z,8.60
2018-09-30T05:55:37.010Z,9.40
2018-09-30T05:56:36.992Z,8.90
2018-09-30T05:57:37.046Z,8.60
2018-09-30T05:58:36.992Z,8.60
2018-09-30T05:59:36.961Z,9.20
2018-09-30T06:00:36.951Z,9.90
2018-09-30T06:01:36.943Z,8.90
2018-09-30T06:02:36.961Z,8.80
2018-09-30T06:03:36.916Z,7.90
2018-09-30T06:04:36.919Z,7.80
2018-09-30T06:05:36.893Z,9.40
2018-09-30T06:06:36.884Z,12.50
2018-09-30T06:07:36.909Z,10.00
2018-09-30T06:08:36.909Z,8.80
2018-09-30T06:09:36.948Z,7.40
2018-09-30T06:10:36.843Z,9.70
2018-09-30T06:11:36.824Z,8.40
2018-09-30T06:12:36.832Z,7.60
2018-09-30T06:13:36.897Z,7.60
2018-09-30T06:14:36.795Z,8.30
2018-09-30T06:15:36.782Z,6.40
2018-09-30T06:16:36.775Z,6.80
2018-09-30T06:17:36.763Z,7.20
2018-09-30T06:18:36.788Z,8.20
2018-09-30T06:19:36.742Z,5.80
2018-09-30T06:20:36.728Z,6.40
2018-09-30T06:21:36.754Z,7.50
2018-09-30T06:22:36.711Z,6.30
2018-09-30T06:23:36.694Z,6.30
2018-09-30T06:24:36.689Z,6.00
2018-09-30T06:25:36.672Z,6.60
2018-09-30T06:26:36.709Z,5.70
2018-09-30T06:27:36.652Z,5.70
2018-09-30T06:28:36.643Z,7.10
2018-09-30T06:29:36.630Z,5.60
2018-09-30T06:30:36.665Z,7.30
2018-09-30T06:31:36.715Z,6.90
2018-09-30T06:32:36.628Z,6.40
2018-09-30T06:33:36.593Z,7.70
2018-09-30T06:34:36.580Z,7.00
2018-09-30T06:35:36.580Z,6.50
2018-09-30T06:36:36.576Z,6.90
2018-09-30T06:37:36.623Z,6.30
2018-09-30T06:38:36.559Z,6.60
2018-09-30T06:39:36.529Z,7.70
2018-09-30T06:40:36.515Z,7.30
2018-09-30T06:41:36.519Z,6.40
2018-09-30T06:42:36.520Z,5.90
2018-09-30T06:43:36.492Z,6.60
2018-09-30T06:44:36.500Z,7.40
2018-09-30T06:45:36.493Z,7.80
2018-09-30T06:46:36.447Z,5.90
2018-09-30T06:47:36.460Z,8.10
2018-09-30T06:48:36.419Z,6.80
2018-09-30T06:49:36.455Z,4.80
2018-09-30T06:50:36.465Z,5.80
2018-09-30T06:51:36.386Z,5.90
2018-09-30T06:52:36.413Z,6.00
2018-09-30T06:53:36.375Z,5.60
2018-09-30T06:54:36.365Z,5.30
2018-09-30T06:55:36.349Z,6.60
2018-09-30T06:56:36.342Z,5.40
2018-09-30T06:57:36.343Z,4.80
2018-09-30T06:58:36.311Z,5.20
2018-09-30T06:59:36.302Z,5.70
2018-09-30T07:00:36.285Z,6.90
2018-09-30T07:01:36.276Z,5.70
2018-09-30T07:02:36.299Z,5.30
2018-09-30T07:03:36.259Z,4.60
2018-09-30T07:04:36.251Z,8.30
2018-09-30T07:05:36.251Z,4.70
2018-09-30T07:06:36.231Z,7.60
2018-09-30T07:07:36.210Z,5.80
2018-09-30T07:08:36.225Z,5.50
2018-09-30T07:09:36.197Z,5.30
2018-09-30T07:10:36.191Z,7.10
2018-09-30T07:11:36.168Z,6.40
2018-09-30T07:12:36.163Z,4.20
2018-09-30T07:13:36.176Z,5.00
2018-09-30T07:14:36.140Z,5.40
2018-09-30T07:15:36.133Z,5.90
2018-09-30T07:16:36.116Z,5.40
2018-09-30T07:17:36.101Z,4.30
2018-09-30T07:18:36.153Z,5.40
2018-09-30T07:19:36.077Z,5.90
2018-09-30T07:20:36.079Z,4.40
2018-09-30T07:21:36.090Z,6.20
2018-09-30T07:22:36.055Z,4.80
2018-09-30T07:23:36.032Z,5.10
2018-09-30T07:24:36.031Z,5.40
2018-09-30T07:25:36.011Z,5.10
2018-09-30T07:26:36.045Z,6.50
2018-09-30T07:27:36.000Z,6.40
2018-09-30T07:28:35.976Z,5.90
2018-09-30T07:29:36.005Z,4.40
2018-09-30T07:30:35.959Z,5.10
2018-09-30T07:31:35.989Z,4.80
2018-09-30T07:32:35.947Z,6.40
2018-09-30T07:33:35.958Z,5.10
2018-09-30T07:34:35.908Z,6.20
2018-09-30T07:35:35.900Z,6.40
2018-09-30T07:36:35.945Z,6.10
2018-09-30T07:37:35.912Z,5.00
2018-09-30T07:38:35.867Z,6.10
2018-09-30T07:39:35.924Z,6.50
2018-09-30T07:40:35.842Z,7.20
2018-09-30T07:41:35.836Z,4.80
2018-09-30T07:42:35.842Z,6.20
2018-09-30T07:43:35.808Z,7.80
2018-09-30T07:44:35.816Z,6.70
2018-09-30T07:45:35.791Z,5.00
2018-09-30T07:46:35.789Z,5.00
2018-09-30T07:47:35.806Z,6.70
2018-09-30T07:48:35.761Z,5.70
2018-09-30T07:49:35.741Z,6.00
2018-09-30T07:50:35.739Z,6.30
2018-09-30T07:51:35.730Z,7.10
2018-09-30T07:52:35.760Z,6.90
2018-09-30T07:53:35.728Z,5.40
2018-09-30T07:54:35.694Z,9.00
2018-09-30T07:55:35.674Z,3.90
2018-09-30T07:56:35.670Z,5.50
2018-09-30T07:57:35.660Z,5.50
2018-09-30T07:58:35.670Z,6.40
2018-09-30T07:59:36.632Z,4.50
2018-09-30T08:00:35.626Z,5.10
2018-09-30T08:01:35.611Z,5.90
2018-09-30T08:02:35.604Z,6.80
2018-09-30T08:03:35.624Z,5.60
2018-09-30T08:04:35.578Z,5.50
2018-09-30T08:05:35.568Z,5.60
2018-09-30T08:06:35.561Z,5.80
2018-09-30T08:07:35.543Z,6.60
2018-09-30T08:08:35.573Z,7.30
2018-09-30T08:09:35.525Z,7.20
2018-09-30T08:10:35.516Z,7.20
2018-09-30T08:11:35.520Z,7.60
2018-09-30T08:12:35.503Z,6.50
2018-09-30T08:13:35.509Z,5.90
2018-09-30T08:14:35.500Z,5.80
2018-09-30T08:15:35.453Z,7.80
2018-09-30T08:16:35.518Z,6.60
2018-09-30T08:17:35.462Z,5.90
2018-09-30T08:18:35.425Z,6.70
2018-09-30T08:19:35.444Z,7.30
2018-09-30T08:20:35.396Z,5.90
2018-09-30T08:21:35.390Z,6.10
2018-09-30T08:22:35.377Z,7.90
2018-09-30T08:23:35.362Z,7.60
2018-09-30T08:24:35.459Z,8.40
2018-09-30T08:25:35.361Z,6.60
2018-09-30T08:26:35.329Z,6.30
2018-09-30T08:27:35.321Z,6.70
2018-09-30T08:28:35.305Z,8.10
2018-09-30T08:29:35.310Z,7.90
2018-09-30T08:30:35.364Z,7.50
2018-09-30T08:31:35.273Z,7.70
2018-09-30T08:32:35.308Z,9.20
2018-09-30T08:33:35.253Z,7.70
2018-09-30T08:34:35.238Z,7.40
2018-09-30T08:35:35.263Z,7.20
2018-09-30T08:36:35.223Z,6.10
2018-09-30T08:37:35.204Z,8.70
2018-09-30T08:38:35.194Z,7.70
2018-09-30T08:39:35.259Z,8.00
2018-09-30T08:40:35.207Z,8.40
2018-09-30T08:41:35.159Z,9.30
2018-09-30T08:42:35.153Z,7.50
2018-09-30T08:43:35.157Z,8.80
2018-09-30T08:44:35.129Z,7.80
2018-09-30T08:45:35.148Z,7.60
2018-09-30T08:46:35.152Z,9.10
2018-09-30T08:47:35.132Z,8.30
2018-09-30T08:48:35.089Z,11.60
2018-09-30T08:49:35.069Z,6.80
2018-09-30T08:50:35.098Z,7.10
2018-09-30T08:51:35.052Z,9.40
2018-09-30T08:52:35.036Z,7.30
2018-09-30T08:53:35.027Z,8.20
2018-09-30T08:54:35.045Z,8.10
2018-09-30T08:55:35.008Z,8.40
2018-09-30T08:56:34.992Z,6.60
2018-09-30T08:57:34.983Z,10.50
2018-09-30T08:58:34.970Z,12.10
2018-09-30T08:59:35.028Z,8.70
2018-09-30T09:00:34.951Z,8.80
2018-09-30T09:01:34.937Z,8.60
2018-09-30T09:02:34.925Z,9.00
2018-09-30T09:03:34.917Z,7.90
2018-09-30T09:04:34.940Z,9.40
2018-09-30T09:05:34.894Z,10.20
2018-09-30T09:06:34.884Z,8.00
2018-09-30T09:07:34.880Z,10.50
2018-09-30T09:08:34.865Z,9.50
2018-09-30T09:09:34.862Z,10.00
2018-09-30T09:10:34.857Z,9.50
2018-09-30T09:11:34.839Z,9.70
2018-09-30T09:12:34.831Z,8.40
2018-09-30T09:13:34.799Z,7.40
2018-09-30T09:14:34.796Z,8.00
2018-09-30T09:15:34.906Z,10.00
2018-09-30T09:16:34.764Z,11.60
2018-09-30T09:17:34.766Z,9.60
2018-09-30T09:18:34.766Z,9.10
2018-09-30T09:19:34.776Z,9.20
2018-09-30T09:20:34.733Z,10.60
2018-09-30T09:21:34.713Z,10.00
2018-09-30T09:22:34.746Z,9.80
2018-09-30T09:23:34.759Z,9.40
2018-09-30T09:24:34.699Z,11.10
2018-09-30T09:25:34.668Z,8.90
2018-09-30T09:26:34.665Z,9.60
2018-09-30T09:27:34.654Z,9.40
2018-09-30T09:28:34.719Z,9.70
2018-09-30T09:29:34.629Z,9.40
2018-09-30T09:30:34.607Z,10.20
2018-09-30T09:31:34.620Z,9.20
2018-09-30T09:32:34.586Z,11.80
2018-09-30T09:33:34.629Z,9.60
2018-09-30T09:34:34.561Z,10.90
2018-09-30T09:35:34.565Z,12.40
2018-09-30T09:36:34.554Z,11.40
2018-09-30T09:37:34.528Z,9.70
2018-09-30T09:38:34.566Z,12.10
2018-09-30T09:39:34.577Z,9.70
2018-09-30T09:40:34.499Z,9.90
2018-09-30T09:41:34.483Z,11.50
2018-09-30T09:42:34.470Z,10.80
2018-09-30T09:43:34.491Z,11.30
2018-09-30T09:44:34.483Z,12.70
2018-09-30T09:45:34.437Z,13.00
2018-09-30T09:46:34.430Z,11.80
2018-09-30T09:47:34.435Z,11.50
2018-09-30T09:48:34.403Z,10.80
2018-09-30T09:49:34.396Z,11.80
2018-09-30T09:50:34.429Z,10.00
2018-09-30T09:51:34.383Z,11.40
2018-09-30T09:52:34.376Z,10.70
2018-09-30T09:53:34.367Z,13.10
2018-09-30T09:54:34.352Z,12.30
2018-09-30T09:55:34.353Z,9.10
2018-09-30T09:56:34.324Z,10.40
2018-09-30T09:57:34.305Z,9.80
2018-09-30T09:58:34.297Z,11.60
2018-09-30T09:59:34.281Z,10.20
2018-09-30T10:00:34.308Z,10.60
2018-09-30T10:01:34.262Z,10.20
2018-09-30T10:02:34.252Z,11.40
2018-09-30T10:03:34.235Z,11.50
2018-09-30T10:04:34.233Z,10.10
2018-09-30T10:05:34.221Z,11.00
2018-09-30T10:06:34.225Z,11.30
2018-09-30T10:07:34.198Z,10.00
2018-09-30T10:08:34.187Z,11.10
2018-09-30T10:09:34.166Z,10.80
2018-09-30T10:10:34.161Z,10.10
2018-09-30T10:11:34.168Z,11.10
2018-09-30T10:12:34.145Z,10.40
2018-09-30T10:13:34.125Z,10.00
2018-09-30T10:14:34.116Z,10.70
2018-09-30T10:15:34.103Z,11.60
2018-09-30T10:16:34.120Z,10.70
2018-09-30T10:17:34.087Z,12.20
2018-09-30T10:18:34.078Z,11.50
2018-09-30T10:19:34.085Z,13.00
2018-09-30T10:20:34.051Z,11.80
2018-09-30T10:21:34.059Z,13.70
2018-09-30T10:22:34.031Z,12.60
2018-09-30T10:23:34.020Z,14.00
2018-09-30T10:24:34.009Z,12.90
2018-09-30T10:25:34.017Z,12.80
2018-09-30T10:26:33.999Z,12.20
2018-09-30T10:27:33.975Z,11.40
2018-09-30T10:28:33.966Z,12.90
2018-09-30T10:29:33.955Z,13.60
2018-09-30T10:30:33.967Z,13.20
2018-09-30T10:31:33.932Z,11.70
2018-09-30T10:32:33.920Z,12.80
2018-09-30T10:33:33.909Z,14.90
2018-09-30T10:34:33.904Z,14.50
2018-09-30T10:35:33.921Z,16.10
2018-09-30T10:36:33.875Z,13.40
2018-09-30T10:37:33.873Z,13.30
2018-09-30T10:38:34.007Z,14.40
2018-09-30T10:39:33.845Z,13.70
2018-09-30T10:40:33.846Z,13.30
2018-09-30T10:41:33.843Z,13.30
2018-09-30T10:42:33.805Z,12.50
2018-09-30T10:43:33.792Z,13.40
2018-09-30T10:44:33.784Z,15.90
2018-09-30T10:45:33.772Z,14.80
2018-09-30T10:46:33.777Z,13.60
2018-09-30T10:47:33.749Z,13.80
2018-09-30T10:48:33.748Z,12.60
2018-09-30T10:49:33.738Z,13.50
2018-09-30T10:50:33.721Z,11.80
2018-09-30T10:51:33.723Z,15.10
2018-09-30T10:52:33.716Z,13.20
2018-09-30T10:53:33.689Z,13.20
2018-09-30T10:54:33.673Z,11.30
2018-09-30T10:55:33.664Z,11.30
2018-09-30T10:56:33.686Z,12.00
2018-09-30T10:57:33.636Z,12.30
2018-09-30T10:58:33.644Z,12.80
2018-09-30T10:59:33.628Z,14.40
2018-09-30T11:00:33.608Z,13.90
2018-09-30T11:01:33.611Z,16.60
2018-09-30T11:02:33.610Z,15.50
2018-09-30T11:03:33.579Z,14.90
2018-09-30T11:04:33.578Z,15.40
2018-09-30T11:05:33.551Z,14.60
2018-09-30T11:06:33.542Z,13.60
2018-09-30T11:07:33.572Z,15.50
2018-09-30T11:08:33.516Z,15.60
2018-09-30T11:09:33.572Z,15.90
2018-09-30T11:10:33.487Z,16.50
2018-09-30T11:11:33.483Z,14.90
2018-09-30T11:12:33.489Z,14.40
2018-09-30T11:13:33.461Z,16.20
2018-09-30T11:14:33.454Z,16.20
2018-09-30T11:15:33.446Z,16.00
2018-09-30T11:16:33.425Z,14.70
2018-09-30T11:17:33.443Z,14.00
2018-09-30T11:18:33.407Z,13.50
2018-09-30T11:19:33.390Z,14.00
2018-09-30T11:20:33.381Z,16.30
2018-09-30T11:21:33.374Z,14.90
2018-09-30T11:22:33.482Z,16.40
2018-09-30T11:23:33.354Z,15.40
2018-09-30T11:24:33.339Z,15.10
2018-09-30T11:25:33.323Z,16.70
2018-09-30T11:26:33.318Z,15.60
2018-09-30T11:27:33.303Z,15.60
2018-09-30T11:28:33.315Z,17.20
2018-09-30T11:29:33.283Z,16.10
2018-09-30T11:30:33.269Z,15.40
2018-09-30T11:31:33.254Z,15.70
2018-09-30T11:32:33.258Z,15.80
2018-09-30T11:33:33.253Z,16.20
2018-09-30T11:34:33.220Z,15.20
2018-09-30T11:35:33.217Z,15.60
2018-09-30T11:36:33.213Z,16.50
2018-09-30T11:37:33.193Z,17.00
2018-09-30T11:38:33.226Z,15.30
2018-09-30T11:39:33.170Z,15.10
2018-09-30T11:40:33.154Z,17.40
2018-09-30T11:41:33.146Z,18.70
2018-09-30T11:42:33.142Z,17.50
2018-09-30T11:43:33.164Z,19.80
2018-09-30T11:44:33.133Z,17.60
2018-09-30T11:45:33.111Z,17.30
2018-09-30T11:46:33.087Z,17.10
2018-09-30T11:47:33.079Z,16.90
2018-09-30T11:48:33.120Z,17.90
2018-09-30T11:49:33.080Z,17.40
2018-09-30T11:50:33.060Z,17.80
2018-09-30T11:51:33.043Z,19.30
2018-09-30T11:52:33.046Z,16.40
2018-09-30T11:53:33.012Z,17.80
2018-09-30T11:54:33.017Z,15.90
2018-09-30T11:55:32.987Z,17.60
2018-09-30T11:56:32.984Z,17.20
2018-09-30T11:57:32.971Z,16.50
2018-09-30T11:58:32.954Z,17.70
2018-09-30T11:59:32.982Z,18.80
2018-09-30T12:00:32.935Z,19.60
2018-09-30T12:01:32.921Z,18.10
2018-09-30T12:02:32.923Z,18.50
2018-09-30T12:03:32.902Z,20.30
2018-09-30T12:04:32.928Z,19.40
2018-09-30T12:05:32.883Z,20.90
2018-09-30T12:06:32.868Z,20.70
2018-09-30T12:07:32.850Z,18.70
2018-09-30T12:08:32.843Z,20.20
2018-09-30T12:09:32.851Z,20.40
2018-09-30T12:10:32.853Z,17.10
2018-09-30T12:11:32.809Z,18.50
2018-09-30T12:12:32.800Z,19.00
2018-09-30T12:13:32.785Z,21.60
2018-09-30T12:14:32.786Z,20.60
2018-09-30T12:15:32.785Z,21.40
2018-09-30T12:16:32.750Z,22.70
2018-09-30T12:17:32.744Z,19.40
2018-09-30T12:18:32.765Z,19.90
2018-09-30T12:19:32.715Z,21.80
2018-09-30T12:20:32.747Z,21.00
2018-09-30T12:21:32.701Z,20.00
2018-09-30T12:22:32.730Z,18.00
2018-09-30T12:23:32.677Z,21.80
2018-09-30T12:24:32.667Z,20.30
2018-09-30T12:25:32.653Z,22.60
2018-09-30T12:26:32.638Z,22.10
2018-09-30T12:27:32.663Z,21.30
2018-09-30T12:28:32.619Z,19.80
2018-09-30T12:29:32.604Z,22.00
2018-09-30T12:30:32.596Z,20.60
2018-09-30T12:31:32.582Z,22.00
2018-09-30T12:32:32.622Z,21.00
2018-09-30T12:33:32.557Z,20.20
2018-09-30T12:34:32.564Z,23.80
2018-09-30T12:35:32.542Z,22.80
2018-09-30T12:36:32.546Z,21.70
2018-09-30T12:37:32.520Z,22.80
2018-09-30T12:38:32.526Z,20.70
2018-09-30T12:39:32.490Z,25.60
2018-09-30T12:40:32.490Z,22.00
2018-09-30T12:41:32.474Z,21.90
2018-09-30T12:42:32.456Z,21.70
2018-09-30T12:43:32.474Z,21.80
2018-09-30T12:44:32.439Z,21.80
2018-09-30T12:45:32.422Z,24.60
2018-09-30T12:46:32.415Z,22.10
2018-09-30T12:47:32.412Z,22.20
2018-09-30T12:48:32.423Z,22.40
2018-09-30T12:49:32.383Z,22.20
2018-09-30T12:50:32.374Z,22.30
2018-09-30T12:51:32.356Z,23.30
2018-09-30T12:52:32.352Z,23.60
2018-09-30T12:53:32.365Z,21.00
2018-09-30T12:54:32.324Z,21.90
2018-09-30T12:55:33.211Z,21.20
2018-09-30T12:56:32.309Z,21.50
2018-09-30T12:57:32.297Z,20.10
2018-09-30T12:58:32.319Z,20.90
2018-09-30T12:59:32.275Z,20.60
2018-09-30T13:00:32.254Z,22.60
2018-09-30T13:01:32.258Z,22.20
2018-09-30T13:02:32.243Z,20.70
2018-09-30T13:03:32.249Z,20.40
2018-09-30T13:04:32.222Z,21.90
2018-09-30T13:05:32.209Z,21.50
2018-09-30T13:06:32.196Z,19.70
2018-09-30T13:07:32.184Z,21.10
2018-09-30T13:08:32.199Z,20.70
2018-09-30T13:09:32.172Z,20.80
2018-09-30T13:10:32.148Z,20.10